Mazy — 9HB2808 — position and weather

sailwx.info

Track history (hours):
 
Tides and Currents Weather Stations Pressure Air Temp Water Temp Dewpoint Dewpoint Depression Visibility Wind Speed Wind Dir Waves Ship Positions

Mazy

Last reported at 2014-Jul-28 01:33 UTC. Time now 2014-Jul-28 16:27 UTC.
Position N 37°05' E 023°38'.

Length 39 m; draft 2.3 m.

MMSI: 229043000.

Date/timePositionNaut miles runAvg speedWind from/ knotsBaromVisibWave heightAir tempDewpointWater temp
2014-Jul-28 01:33N 37°05' E 023°38'1411.9
2014-Jul-28 00:23N 37°01' E 023°55'1011.5
2014-Jul-27 23:33N 36°58' E 024°06'1111.1
2014-Jul-27 22:33N 36°55' E 024°20'1111.4
2014-Jul-27 21:33N 36°51' E 024°33'3 2.5
2014-Jul-27 20:20N 36°49' E 024°36'0 0.0
2014-Jul-27 19:32N 36°49' E 024°36'0 0.0
2014-Jul-27 18:32N 36°49' E 024°36'0 0.0
2014-Jul-27 17:32N 36°49' E 024°36'0 0.0
2014-Jul-27 16:26N 36°49' E 024°36'0 0.0
2014-Jul-27 10:08N 36°49' E 024°36'0 0.0
2014-Jul-27 09:32N 36°49' E 024°36'0 0.0
2014-Jul-27 07:31N 36°49' E 024°36'0 0.0
2014-Jul-27 06:33N 36°49' E 024°36'0 0.0
2014-Jul-27 05:33N 36°49' E 024°36'0 0.0
2014-Jul-27 04:33N 36°49' E 024°36'0 0.0
2014-Jul-27 03:33N 36°49' E 024°36'0 0.0
2014-Jul-27 02:33N 36°49' E 024°36'0 0.0
2014-Jul-27 01:33N 36°49' E 024°36'0 0.0
2014-Jul-27 00:32N 36°49' E 024°36'0 0.0
2014-Jul-26 23:33N 36°49' E 024°36'0 0.0
2014-Jul-26 22:32N 36°49' E 024°36'0 0.0
2014-Jul-26 21:29N 36°49' E 024°36'0 0.0
2014-Jul-26 20:33N 36°49' E 024°36'0 0.0
2014-Jul-26 19:32N 36°49' E 024°36'0 0.0
2014-Jul-26 18:33N 36°49' E 024°36'0 0.0
2014-Jul-26 17:33N 36°49' E 024°36'0 0.0
2014-Jul-26 16:33N 36°49' E 024°36'0 0.0
2014-Jul-26 15:33N 36°49' E 024°36'0 0.0
2014-Jul-26 14:33N 36°49' E 024°36'0 0.1
2014-Jul-26 13:33N 36°49' E 024°36'0 0.0
2014-Jul-26 12:33N 36°49' E 024°36'1 1.0
2014-Jul-26 11:33N 36°50' E 024°37'5 0.3
2014-Jul-25 16:26N 36°55' E 024°38'6 0.2
2014-Jul-24 14:33N 36°49' E 024°36'1212.2
2014-Jul-24 13:33N 36°53' E 024°51'1212.2
2014-Jul-24 12:33N 36°57' E 025°05'1 0.6
2014-Jul-24 11:30N 36°58' E 025°04'0 0.0
2014-Jul-24 10:30N 36°58' E 025°04'0 0.0
2014-Jul-24 09:30N 36°58' E 025°04'0 0.0
2014-Jul-24 08:18N 36°58' E 025°04'0 0.0
2014-Jul-24 07:30N 36°58' E 025°04'0 0.0
2014-Jul-24 06:30N 36°58' E 025°04'0 0.0
2014-Jul-24 05:30N 36°58' E 025°04'0 0.0
2014-Jul-24 04:30N 36°58' E 025°04'0 0.0
2014-Jul-24 03:30N 36°58' E 025°04'0 0.0
2014-Jul-24 02:30N 36°58' E 025°04'0 0.0
2014-Jul-24 01:30N 36°58' E 025°04'0 0.0
2014-Jul-24 00:30N 36°58' E 025°04'0 0.0
2014-Jul-23 23:30N 36°58' E 025°04'0 0.0
2014-Jul-23 22:30N 36°58' E 025°04'0 0.0
2014-Jul-23 21:24N 36°58' E 025°04'0 0.0
2014-Jul-23 20:30N 36°58' E 025°04'0 0.0
2014-Jul-23 19:30N 36°58' E 025°04'0 0.0
2014-Jul-23 18:30N 36°58' E 025°04'0 0.0
2014-Jul-23 17:24N 36°58' E 025°04'0 0.0
2014-Jul-23 16:30N 36°58' E 025°04'0 0.0
2014-Jul-23 15:30N 36°58' E 025°04'0 0.0
2014-Jul-23 14:30N 36°58' E 025°04'0 0.0
2014-Jul-23 13:30N 36°58' E 025°04'0 0.0
2014-Jul-23 12:30N 36°58' E 025°04'0 0.0
2014-Jul-23 11:30N 36°58' E 025°04'0 0.0
2014-Jul-23 10:30N 36°58' E 025°04'0 0.0
2014-Jul-23 08:18N 36°58' E 025°04'0 0.0
2014-Jul-23 07:30N 36°58' E 025°04'0 0.0
2014-Jul-23 06:30N 36°58' E 025°04'0 0.0
2014-Jul-23 05:18N 36°58' E 025°04'0 0.0
2014-Jul-23 04:30N 36°58' E 025°04'0 0.0
2014-Jul-23 03:24N 36°58' E 025°04'0 0.0
2014-Jul-23 02:30N 36°58' E 025°04'0 0.0
2014-Jul-23 01:30N 36°58' E 025°04'0 0.0
2014-Jul-22 23:30N 36°58' E 025°04'0 0.0
2014-Jul-22 22:12N 36°58' E 025°04'0 0.0
2014-Jul-22 21:30N 36°58' E 025°04'0 0.0
2014-Jul-22 20:30N 36°58' E 025°04'0 0.0
2014-Jul-22 17:30N 36°58' E 025°04'0 0.1
2014-Jul-22 16:18N 36°58' E 025°04'3 3.7
2014-Jul-22 15:33N 36°58' E 025°07'2 1.8
2014-Jul-22 14:31N 36°59' E 025°09'0 0.0
2014-Jul-22 13:31N 36°59' E 025°09'0 0.0
2014-Jul-22 12:31N 36°59' E 025°09'0 0.0
2014-Jul-22 11:31N 36°59' E 025°09'0 0.0
2014-Jul-22 10:31N 36°59' E 025°09'0 0.0
2014-Jul-22 09:07N 36°59' E 025°09'0 0.0
2014-Jul-22 08:19N 36°59' E 025°09'0 0.0
2014-Jul-22 07:31N 36°59' E 025°09'0 0.0
2014-Jul-22 06:33N 36°59' E 025°09'0 0.0
2014-Jul-22 05:33N 36°59' E 025°09'0 0.0
2014-Jul-22 04:33N 36°59' E 025°09'0 0.0
2014-Jul-22 03:33N 36°59' E 025°09'0 0.0
2014-Jul-22 02:33N 36°59' E 025°09'0 0.0
2014-Jul-22 01:33N 36°59' E 025°09'0 0.0
2014-Jul-22 00:32N 36°59' E 025°09'0 0.0
2014-Jul-21 23:27N 36°59' E 025°09'0 0.0
2014-Jul-21 22:33N 36°59' E 025°09'0 0.0
2014-Jul-21 21:33N 36°59' E 025°09'0 0.0
2014-Jul-21 20:32N 36°59' E 025°09'0 0.0
2014-Jul-21 20:17N 36°59' E 025°09'0 0.0
2014-Jul-21 19:32N 36°59' E 025°09'0 0.0
2014-Jul-21 18:32N 36°59' E 025°09'0 0.0
2014-Jul-21 17:33N 36°59' E 025°09'3 3.1
2014-Jul-21 16:31N 36°59' E 025°13'1213.0
2014-Jul-21 15:33N 37°11' E 025°18'1313.2
2014-Jul-21 14:33N 37°24' E 025°20'1 0.6
2014-Jul-21 13:13N 37°25' E 025°20'0 0.0
2014-Jul-21 12:31N 37°25' E 025°20'0 0.0
2014-Jul-21 11:25N 37°25' E 025°20'0 0.0
2014-Jul-21 08:19N 37°25' E 025°20'0 0.0
2014-Jul-21 06:25N 37°25' E 025°20'0 0.0
2014-Jul-21 05:07N 37°25' E 025°20'0 0.0
2014-Jul-21 03:31N 37°25' E 025°20'0 0.0
2014-Jul-21 02:07N 37°25' E 025°20'0 0.0
2014-Jul-21 01:25N 37°25' E 025°20'0 0.0
2014-Jul-21 00:25N 37°25' E 025°20'0 0.0
2014-Jul-20 23:31N 37°25' E 025°20'0 0.0
2014-Jul-20 22:25N 37°25' E 025°20'0 0.0
2014-Jul-20 21:25N 37°25' E 025°20'0 0.0
2014-Jul-20 20:31N 37°25' E 025°20'0 0.0
2014-Jul-20 19:19N 37°25' E 025°20'0 0.0
2014-Jul-20 18:19N 37°25' E 025°20'0 0.0
2014-Jul-20 17:07N 37°25' E 025°20'0 0.0
2014-Jul-20 16:31N 37°25' E 025°20'0 0.0
2014-Jul-20 15:19N 37°25' E 025°20'0 0.0
2014-Jul-20 13:07N 37°25' E 025°20'0 0.0
2014-Jul-20 12:31N 37°25' E 025°20'0 0.0
2014-Jul-20 11:04N 37°25' E 025°20'0 0.0
2014-Jul-20 10:31N 37°25' E 025°20'0 0.0
2014-Jul-20 09:13N 37°25' E 025°20'0 0.0
2014-Jul-20 08:31N 37°25' E 025°20'0 0.0
2014-Jul-20 07:25N 37°25' E 025°20'0 0.0
2014-Jul-20 05:13N 37°25' E 025°20'0 0.0
2014-Jul-20 04:07N 37°25' E 025°20'0 0.0
2014-Jul-20 02:28N 37°25' E 025°20'0 0.0
2014-Jul-20 01:25N 37°25' E 025°20'0 0.0
2014-Jul-20 00:31N 37°25' E 025°20'0 0.0
2014-Jul-19 23:31N 37°25' E 025°20'0 0.0
2014-Jul-19 22:31N 37°25' E 025°20'0 0.0
2014-Jul-19 21:25N 37°25' E 025°20'0 0.0
2014-Jul-19 19:19N 37°25' E 025°20'0 0.0
2014-Jul-19 18:31N 37°25' E 025°20'0 0.0
2014-Jul-19 17:25N 37°25' E 025°20'0 0.0
2014-Jul-19 16:19N 37°25' E 025°20'0 0.0
2014-Jul-19 15:07N 37°25' E 025°20'0 0.0
2014-Jul-19 14:25N 37°25' E 025°20'0 0.0
2014-Jul-19 13:31N 37°25' E 025°20'0 0.0
2014-Jul-19 12:25N 37°25' E 025°20'0 0.0
2014-Jul-19 11:31N 37°25' E 025°20'0 0.1
2014-Jul-19 10:29N 37°25' E 025°20'0 0.3
2014-Jul-19 09:25N 37°25' E 025°21'2 0.4
2014-Jul-19 05:15N 37°25' E 025°23'0 0.0
2014-Jul-19 04:32N 37°25' E 025°23'0 0.0
2014-Jul-19 03:32N 37°25' E 025°23'0 0.0
2014-Jul-19 02:33N 37°25' E 025°23'0 0.0
2014-Jul-19 01:32N 37°25' E 025°23'0 0.0
2014-Jul-19 00:33N 37°25' E 025°23'0 0.0
2014-Jul-18 23:33N 37°25' E 025°23'0 0.0
2014-Jul-18 22:30N 37°25' E 025°23'0 0.0
2014-Jul-18 21:33N 37°25' E 025°23'0 0.0
2014-Jul-18 20:29N 37°25' E 025°23'0 0.0
2014-Jul-18 19:32N 37°25' E 025°23'0 0.0
2014-Jul-18 18:32N 37°25' E 025°23'0 0.0
2014-Jul-18 17:31N 37°25' E 025°23'0 0.0
2014-Jul-18 16:32N 37°25' E 025°23'0 0.0
2014-Jul-18 15:33N 37°25' E 025°23'0 0.0
2014-Jul-18 14:33N 37°25' E 025°23'0 0.0
2014-Jul-18 13:33N 37°25' E 025°23'0 0.0
2014-Jul-18 12:28N 37°25' E 025°23'0 0.0
2014-Jul-18 11:29N 37°25' E 025°23'0 0.0
2014-Jul-18 10:33N 37°25' E 025°23'0 0.0
2014-Jul-18 09:33N 37°25' E 025°23'2 2.1
2014-Jul-18 08:33N 37°24' E 025°21'3 2.9
2014-Jul-18 07:34N 37°27' E 025°20'0 0.0
2014-Jul-18 06:33N 37°27' E 025°20'0 0.0
2014-Jul-18 05:32N 37°27' E 025°20'0 0.0
2014-Jul-18 04:33N 37°27' E 025°20'0 0.0
2014-Jul-18 03:32N 37°27' E 025°20'0 0.0
2014-Jul-18 02:33N 37°27' E 025°20'  
Track history (hours):
 
Tides and Currents Weather Stations Pressure Air Temp Water Temp Dewpoint Dewpoint Depression Visibility Wind Speed Wind Dir Waves Ship Positions

Mazy

Last reported at 2014-Jul-28 01:33 UTC. Time now 2014-Jul-28 16:27 UTC.
Position N 37°05' E 023°38'.

Length 39 m; draft 2.3 m.

MMSI: 229043000.

Date/timePositionNaut miles runAvg speedWind from/ knotsBaromVisibWave heightAir tempDewpointWater temp
2014-Jul-28 01:33N 37°05' E 023°38'1411.9
2014-Jul-28 00:23N 37°01' E 023°55'1011.5
2014-Jul-27 23:33N 36°58' E 024°06'1111.1
2014-Jul-27 22:33N 36°55' E 024°20'1111.4
2014-Jul-27 21:33N 36°51' E 024°33'3 2.5
2014-Jul-27 20:20N 36°49' E 024°36'0 0.0
2014-Jul-27 19:32N 36°49' E 024°36'0 0.0
2014-Jul-27 18:32N 36°49' E 024°36'0 0.0
2014-Jul-27 17:32N 36°49' E 024°36'0 0.0
2014-Jul-27 16:26N 36°49' E 024°36'0 0.0
2014-Jul-27 10:08N 36°49' E 024°36'0 0.0
2014-Jul-27 09:32N 36°49' E 024°36'0 0.0
2014-Jul-27 07:31N 36°49' E 024°36'0 0.0
2014-Jul-27 06:33N 36°49' E 024°36'0 0.0
2014-Jul-27 05:33N 36°49' E 024°36'0 0.0
2014-Jul-27 04:33N 36°49' E 024°36'0 0.0
2014-Jul-27 03:33N 36°49' E 024°36'0 0.0
2014-Jul-27 02:33N 36°49' E 024°36'0 0.0
2014-Jul-27 01:33N 36°49' E 024°36'0 0.0
2014-Jul-27 00:32N 36°49' E 024°36'0 0.0
2014-Jul-26 23:33N 36°49' E 024°36'0 0.0
2014-Jul-26 22:32N 36°49' E 024°36'0 0.0
2014-Jul-26 21:29N 36°49' E 024°36'0 0.0
2014-Jul-26 20:33N 36°49' E 024°36'0 0.0
2014-Jul-26 19:32N 36°49' E 024°36'0 0.0
2014-Jul-26 18:33N 36°49' E 024°36'0 0.0
2014-Jul-26 17:33N 36°49' E 024°36'0 0.0
2014-Jul-26 16:33N 36°49' E 024°36'0 0.0
2014-Jul-26 15:33N 36°49' E 024°36'0 0.0
2014-Jul-26 14:33N 36°49' E 024°36'0 0.1
2014-Jul-26 13:33N 36°49' E 024°36'0 0.0
2014-Jul-26 12:33N 36°49' E 024°36'1 1.0
2014-Jul-26 11:33N 36°50' E 024°37'5 0.3
2014-Jul-25 16:26N 36°55' E 024°38'6 0.2
2014-Jul-24 14:33N 36°49' E 024°36'1212.2
2014-Jul-24 13:33N 36°53' E 024°51'1212.2
2014-Jul-24 12:33N 36°57' E 025°05'1 0.6
2014-Jul-24 11:30N 36°58' E 025°04'0 0.0
2014-Jul-24 10:30N 36°58' E 025°04'0 0.0
2014-Jul-24 09:30N 36°58' E 025°04'0 0.0
2014-Jul-24 08:18N 36°58' E 025°04'0 0.0
2014-Jul-24 07:30N 36°58' E 025°04'0 0.0
2014-Jul-24 06:30N 36°58' E 025°04'0 0.0
2014-Jul-24 05:30N 36°58' E 025°04'0 0.0
2014-Jul-24 04:30N 36°58' E 025°04'0 0.0
2014-Jul-24 03:30N 36°58' E 025°04'0 0.0
2014-Jul-24 02:30N 36°58' E 025°04'0 0.0
2014-Jul-24 01:30N 36°58' E 025°04'0 0.0
2014-Jul-24 00:30N 36°58' E 025°04'0 0.0
2014-Jul-23 23:30N 36°58' E 025°04'0 0.0
2014-Jul-23 22:30N 36°58' E 025°04'0 0.0
2014-Jul-23 21:24N 36°58' E 025°04'0 0.0
2014-Jul-23 20:30N 36°58' E 025°04'0 0.0
2014-Jul-23 19:30N 36°58' E 025°04'0 0.0
2014-Jul-23 18:30N 36°58' E 025°04'0 0.0
2014-Jul-23 17:24N 36°58' E 025°04'0 0.0
2014-Jul-23 16:30N 36°58' E 025°04'0 0.0
2014-Jul-23 15:30N 36°58' E 025°04'0 0.0
2014-Jul-23 14:30N 36°58' E 025°04'0 0.0
2014-Jul-23 13:30N 36°58' E 025°04'0 0.0
2014-Jul-23 12:30N 36°58' E 025°04'0 0.0
2014-Jul-23 11:30N 36°58' E 025°04'0 0.0
2014-Jul-23 10:30N 36°58' E 025°04'0 0.0
2014-Jul-23 08:18N 36°58' E 025°04'0 0.0
2014-Jul-23 07:30N 36°58' E 025°04'0 0.0
2014-Jul-23 06:30N 36°58' E 025°04'0 0.0
2014-Jul-23 05:18N 36°58' E 025°04'0 0.0
2014-Jul-23 04:30N 36°58' E 025°04'0 0.0
2014-Jul-23 03:24N 36°58' E 025°04'0 0.0
2014-Jul-23 02:30N 36°58' E 025°04'0 0.0
2014-Jul-23 01:30N 36°58' E 025°04'0 0.0
2014-Jul-22 23:30N 36°58' E 025°04'0 0.0
2014-Jul-22 22:12N 36°58' E 025°04'0 0.0
2014-Jul-22 21:30N 36°58' E 025°04'0 0.0
2014-Jul-22 20:30N 36°58' E 025°04'0 0.0
2014-Jul-22 17:30N 36°58' E 025°04'0 0.1
2014-Jul-22 16:18N 36°58' E 025°04'3 3.7
2014-Jul-22 15:33N 36°58' E 025°07'2 1.8
2014-Jul-22 14:31N 36°59' E 025°09'0 0.0
2014-Jul-22 13:31N 36°59' E 025°09'0 0.0
2014-Jul-22 12:31N 36°59' E 025°09'0 0.0
2014-Jul-22 11:31N 36°59' E 025°09'0 0.0
2014-Jul-22 10:31N 36°59' E 025°09'0 0.0
2014-Jul-22 09:07N 36°59' E 025°09'0 0.0
2014-Jul-22 08:19N 36°59' E 025°09'0 0.0
2014-Jul-22 07:31N 36°59' E 025°09'0 0.0
2014-Jul-22 06:33N 36°59' E 025°09'0 0.0
2014-Jul-22 05:33N 36°59' E 025°09'0 0.0
2014-Jul-22 04:33N 36°59' E 025°09'0 0.0
2014-Jul-22 03:33N 36°59' E 025°09'0 0.0
2014-Jul-22 02:33N 36°59' E 025°09'0 0.0
2014-Jul-22 01:33N 36°59' E 025°09'0 0.0
2014-Jul-22 00:32N 36°59' E 025°09'0 0.0
2014-Jul-21 23:27N 36°59' E 025°09'0 0.0
2014-Jul-21 22:33N 36°59' E 025°09'0 0.0
2014-Jul-21 21:33N 36°59' E 025°09'0 0.0
2014-Jul-21 20:32N 36°59' E 025°09'0 0.0
2014-Jul-21 20:17N 36°59' E 025°09'0 0.0
2014-Jul-21 19:32N 36°59' E 025°09'0 0.0
2014-Jul-21 18:32N 36°59' E 025°09'0 0.0
2014-Jul-21 17:33N 36°59' E 025°09'3 3.1
2014-Jul-21 16:31N 36°59' E 025°13'1213.0
2014-Jul-21 15:33N 37°11' E 025°18'1313.2
2014-Jul-21 14:33N 37°24' E 025°20'1 0.6
2014-Jul-21 13:13N 37°25' E 025°20'0 0.0
2014-Jul-21 12:31N 37°25' E 025°20'0 0.0
2014-Jul-21 11:25N 37°25' E 025°20'0 0.0
2014-Jul-21 08:19N 37°25' E 025°20'0 0.0
2014-Jul-21 06:25N 37°25' E 025°20'0 0.0
2014-Jul-21 05:07N 37°25' E 025°20'0 0.0
2014-Jul-21 03:31N 37°25' E 025°20'0 0.0
2014-Jul-21 02:07N 37°25' E 025°20'0 0.0
2014-Jul-21 01:25N 37°25' E 025°20'0 0.0
2014-Jul-21 00:25N 37°25' E 025°20'0 0.0
2014-Jul-20 23:31N 37°25' E 025°20'0 0.0
2014-Jul-20 22:25N 37°25' E 025°20'0 0.0
2014-Jul-20 21:25N 37°25' E 025°20'0 0.0
2014-Jul-20 20:31N 37°25' E 025°20'0 0.0
2014-Jul-20 19:19N 37°25' E 025°20'0 0.0
2014-Jul-20 18:19N 37°25' E 025°20'0 0.0
2014-Jul-20 17:07N 37°25' E 025°20'0 0.0
2014-Jul-20 16:31N 37°25' E 025°20'0 0.0
2014-Jul-20 15:19N 37°25' E 025°20'0 0.0
2014-Jul-20 13:07N 37°25' E 025°20'0 0.0
2014-Jul-20 12:31N 37°25' E 025°20'0 0.0
2014-Jul-20 11:04N 37°25' E 025°20'0 0.0
2014-Jul-20 10:31N 37°25' E 025°20'0 0.0
2014-Jul-20 09:13N 37°25' E 025°20'0 0.0
2014-Jul-20 08:31N 37°25' E 025°20'0 0.0
2014-Jul-20 07:25N 37°25' E 025°20'0 0.0
2014-Jul-20 05:13N 37°25' E 025°20'0 0.0
2014-Jul-20 04:07N 37°25' E 025°20'0 0.0
2014-Jul-20 02:28N 37°25' E 025°20'0 0.0
2014-Jul-20 01:25N 37°25' E 025°20'0 0.0
2014-Jul-20 00:31N 37°25' E 025°20'0 0.0
2014-Jul-19 23:31N 37°25' E 025°20'0 0.0
2014-Jul-19 22:31N 37°25' E 025°20'0 0.0
2014-Jul-19 21:25N 37°25' E 025°20'0 0.0
2014-Jul-19 19:19N 37°25' E 025°20'0 0.0
2014-Jul-19 18:31N 37°25' E 025°20'0 0.0
2014-Jul-19 17:25N 37°25' E 025°20'0 0.0
2014-Jul-19 16:19N 37°25' E 025°20'0 0.0
2014-Jul-19 15:07N 37°25' E 025°20'0 0.0
2014-Jul-19 14:25N 37°25' E 025°20'0 0.0
2014-Jul-19 13:31N 37°25' E 025°20'0 0.0
2014-Jul-19 12:25N 37°25' E 025°20'0 0.0
2014-Jul-19 11:31N 37°25' E 025°20'0 0.1
2014-Jul-19 10:29N 37°25' E 025°20'0 0.3
2014-Jul-19 09:25N 37°25' E 025°21'2 0.4
2014-Jul-19 05:15N 37°25' E 025°23'0 0.0
2014-Jul-19 04:32N 37°25' E 025°23'0 0.0
2014-Jul-19 03:32N 37°25' E 025°23'0 0.0
2014-Jul-19 02:33N 37°25' E 025°23'0 0.0
2014-Jul-19 01:32N 37°25' E 025°23'0 0.0
2014-Jul-19 00:33N 37°25' E 025°23'0 0.0
2014-Jul-18 23:33N 37°25' E 025°23'0 0.0
2014-Jul-18 22:30N 37°25' E 025°23'0 0.0
2014-Jul-18 21:33N 37°25' E 025°23'0 0.0
2014-Jul-18 20:29N 37°25' E 025°23'0 0.0
2014-Jul-18 19:32N 37°25' E 025°23'0 0.0
2014-Jul-18 18:32N 37°25' E 025°23'0 0.0
2014-Jul-18 17:31N 37°25' E 025°23'0 0.0
2014-Jul-18 16:32N 37°25' E 025°23'0 0.0
2014-Jul-18 15:33N 37°25' E 025°23'0 0.0
2014-Jul-18 14:33N 37°25' E 025°23'0 0.0
2014-Jul-18 13:33N 37°25' E 025°23'0 0.0
2014-Jul-18 12:28N 37°25' E 025°23'0 0.0
2014-Jul-18 11:29N 37°25' E 025°23'0 0.0
2014-Jul-18 10:33N 37°25' E 025°23'0 0.0
2014-Jul-18 09:33N 37°25' E 025°23'2 2.1
2014-Jul-18 08:33N 37°24' E 025°21'3 2.9
2014-Jul-18 07:34N 37°27' E 025°20'0 0.0
2014-Jul-18 06:33N 37°27' E 025°20'0 0.0
2014-Jul-18 05:32N 37°27' E 025°20'0 0.0
2014-Jul-18 04:33N 37°27' E 025°20'0 0.0
2014-Jul-18 03:32N 37°27' E 025°20'0 0.0
2014-Jul-18 02:33N 37°27' E 025°20'  

Dump ship's entire track history